Latest Weather Observations for Sydney Airport

IDN60901

Issued at 3:51 am EDT Wednesday 1 March 2017 (issued every 10 minutes, with the page automatically refreshed every 10 minutes)

About weather observations | Map of Sydney area stations | Latest observations for Sydney area | Other Formats
Station Details ID: 066037 Name: SYDNEY AIRPORT AMO Lat: -33.95 Lon: 151.17 Height: 6.0 m
Data from the previous 72 hours. | See also: Recent months at Sydney Airport
Date/Time
EDT
Temp
°C
App
Temp
°C
Dew
Point
°C
Rel
Hum
%
Delta-T
°C
Wind Press
QNH
hPa
Press
MSL
hPa
Rain since
9am
mm
Dir  Spd
km/h
Gust
km/h
Spd
kts
Gust
kts
01/03:30am 22.8 21.8 20.5 87 1.5 SE 26 32 14 17 1019.8 1019.8 0.8
01/03:00am 22.7 21.2 20.2 86 1.6 SE 28 35 15 19 1020.0 1020.0 0.8
01/02:30am 22.8 22.5 20.3 86 1.6 SE 22 28 12 15 1020.3 1020.3 0.8
01/02:00am 22.4 22.0 20.1 87 1.5 SE 22 33 12 18 1020.7 1020.7 0.8
01/01:30am 22.8 23.7 20.1 85 1.7 SSE 15 19 8 10 1020.8 1020.8 0.4
01/01:00am 23.0 23.0 20.1 84 1.9 SE 20 28 11 15 1020.9 1020.9 0.4
01/12:30am 22.9 23.1 20.1 84 1.8 SE 19 28 10 15 1021.3 1021.3 0.4
01/12:00am 23.4 22.7 20.3 83 2.0 SE 24 30 13 16 1021.4 1021.4 0.4
 
Date/Time
EDT
Temp
°C
App
Temp
°C
Dew
Point
°C
Rel
Hum
%
Delta-T
°C
Wind Press
QNH
hPa
Press
MSL
hPa
Rain since
9am
mm
Dir  Spd
km/h
Gust
km/h
Spd
kts
Gust
kts
28/11:30pm 23.1 23.1 20.1 83 1.9 SE 20 26 11 14 1021.8 1021.8 0.4
28/11:00pm 23.5 22.9 19.8 80 2.4 SE 22 30 12 16 1022.2 1022.2 0.4
28/10:30pm 23.3 23.0 19.5 79 2.4 SE 20 26 11 14 1022.4 1022.4 0.4
28/10:00pm 23.5 22.8 19.4 78 2.6 SE 22 28 12 15 1022.4 1022.4 0.4
28/09:30pm 23.8 22.9 19.1 75 3.0 ESE 22 28 12 15 1022.5 1022.5 0.4
28/09:00pm 23.5 22.9 18.8 75 3.0 SE 20 26 11 14 1022.3 1022.3 0.4
28/08:30pm 23.8 23.4 18.9 74 3.1 SE 19 26 10 14 1022.1 1022.1 0.4
28/08:00pm 23.7 23.3 18.8 74 3.1 SE 19 24 10 13 1022.2 1022.2 0.4
28/07:30pm 24.2 23.8 18.8 72 3.4 SE 19 24 10 13 1021.9 1021.9 0.4
28/07:00pm 24.7 23.7 18.9 70 3.7 ESE 22 28 12 15 1021.6 1021.6 0.4
28/06:30pm 25.0 23.8 18.4 66 4.2 SE 22 28 12 15 1021.3 1021.3 0.4
28/06:00pm 24.6 23.2 18.8 70 3.7 ESE 24 30 13 16 1021.2 1021.2 0.4
28/05:30pm 25.1 25.4 19.5 71 3.6 SE 17 26 9 14 1021.3 1021.3 0.4
28/05:00pm 25.0 24.3 18.2 66 4.3 E 19 28 10 15 1021.3 1021.3 0.4
28/04:30pm 24.7 23.8 18.2 67 4.1 ENE 20 30 11 16 1021.3 1021.3 0.4
28/04:00pm 23.0 20.2 18.3 75 2.9 ENE 30 39 16 21 1021.5 1021.5 0.4
28/03:55pm 23.7 21.6 18.1 71 3.5 ESE 26 33 14 18 1021.5 1021.5 0.4
28/03:30pm 25.6 24.3 19.0 67 4.2 ESE 24 32 13 17 1021.4 1021.4 0.4
28/03:00pm 26.9 26.0 19.0 62 5.1 ESE 22 28 12 15 1021.4 1021.4 0.4
28/02:30pm 26.5 25.0 18.6 62 5.0 E 24 32 13 17 1021.6 1021.6 0.4
28/02:00pm 26.9 24.7 19.5 64 4.8 E 30 37 16 20 1022.0 1022.0 0.4
28/01:30pm 26.4 24.0 19.0 63 4.7 E 30 39 16 21 1022.2 1022.2 0.4
28/01:00pm 26.0 23.5 18.9 65 4.5 E 30 39 16 21 1022.3 1022.3 0.2
28/12:30pm 25.3 22.7 18.7 67 4.2 E 30 37 16 20 1022.4 1022.4 0.2
28/12:00pm 25.2 22.8 19.1 69 3.9 ENE 30 37 16 20 1022.7 1022.7 0.2
28/11:57am 25.5 23.5 19.2 68 4.0 ENE 28 37 15 20 1022.7 1022.7 0.2
28/11:30am 23.5 24.4 20.8 85 1.8 E 17 22 9 12 1023.1 1023.1 0.2
28/11:00am 24.8 22.8 19.2 71 3.6 ESE 28 37 15 20 1023.0 1023.0 0.0
28/10:30am 25.5 24.0 19.4 69 3.9 ESE 26 33 14 18 1022.9 1022.9 0.0
28/10:00am 24.6 23.3 19.0 71 3.6 E 24 30 13 16 1023.0 1023.0 0.0
28/09:30am 25.7 24.9 19.3 67 4.1 E 22 30 12 16 1022.8 1022.8 0.0
28/09:00am 24.5 23.6 19.1 72 3.4 E 22 30 12 16 1022.7 1022.7 1.0
28/08:30am 24.2 23.0 19.3 74 3.1 E 24 32 13 17 1022.6 1022.6 1.0
28/08:00am 22.9 22.3 18.9 78 2.5 E 20 26 11 14 1022.5 1022.5 1.0
28/07:30am 23.1 23.6 19.3 79 2.4 E 15 20 8 11 1022.3 1022.3 1.0
28/07:00am 22.0 22.0 19.0 83 1.9 ESE 17 19 9 10 1021.9 1021.9 1.0
28/06:30am 21.9 20.7 18.5 81 2.1 ESE 22 30 12 16 1021.6 1021.6 1.0
28/06:00am 21.8 21.2 18.8 83 1.9 E 20 26 11 14 1021.5 1021.5 1.0
28/05:30am 21.6 21.4 18.6 83 1.9 E 17 22 9 12 1021.4 1021.4 1.0
28/05:00am 21.7 20.9 18.1 80 2.2 E 19 24 10 13 1021.4 1021.4 1.0
28/04:30am 21.8 21.3 18.6 82 2.0 ESE 19 28 10 15 1021.2 1021.2 1.0
28/04:00am 21.6 21.5 18.8 84 1.8 ESE 17 26 9 14 1021.2 1021.2 1.0
28/03:30am 21.0 21.6 18.6 86 1.5 ESE 13 17 7 9 1021.5 1021.5 1.0
28/03:00am 21.1 21.1 18.9 87 1.4 ESE 17 22 9 12 1021.6 1021.6 1.0
28/02:30am 21.1 21.7 19.4 90 1.1 E 15 26 8 14 1022.0 1022.0 1.0
28/02:00am 20.5 21.0 19.2 92 0.8 ESE 15 19 8 10 1022.2 1022.2 1.0
28/01:30am 20.1 20.8 18.8 92 0.8 SE 13 15 7 8 1022.6 1022.6 1.0
28/01:16am 20.1 20.4 18.8 92 0.8 SE 15 20 8 11 1022.8 1022.8 1.0
28/01:00am 20.8 19.9 19.1 90 1.1 SE 22 32 12 17 1023.0 1023.0 0.4
28/12:30am 21.4 21.4 19.7 90 1.1 SSW 19 24 10 13 1022.8 1022.8 0.2
28/12:00am 21.3 21.0 19.2 88 1.3 SSW 19 26 10 14 1022.9 1022.9 0.2
 
Date/Time
EDT
Temp
°C
App
Temp
°C
Dew
Point
°C
Rel
Hum
%
Delta-T
°C
Wind Press
QNH
hPa
Press
MSL
hPa
Rain since
9am
mm
Dir  Spd
km/h
Gust
km/h
Spd
kts
Gust
kts
27/11:30pm 21.4 21.2 19.7 90 1.1 SSW 20 26 11 14 1023.1 1023.1 0.2
27/11:00pm 21.6 21.4 19.7 89 1.2 SSW 20 28 11 15 1023.3 1023.3 0.2
27/10:30pm 21.5 21.8 19.6 89 1.2 SSW 17 24 9 13 1023.2 1023.2 0.2
27/10:00pm 21.4 20.9 19.0 86 1.5 SSW 20 26 11 14 1023.3 1023.3 0.2
27/09:30pm 21.6 20.7 18.2 81 2.1 SSW 20 26 11 14 1023.2 1023.2 0.2
27/09:00pm 21.6 21.6 18.2 81 2.1 SSW 15 20 8 11 1023.0 1023.0 0.2
27/08:30pm 21.7 20.0 18.1 80 2.2 SSW 24 28 13 15 1022.9 1022.9 0.2
27/08:00pm 22.2 21.1 19.4 84 1.8 S 24 32 13 17 1022.7 1022.7 0.2
27/07:30pm 22.3 19.9 18.3 78 2.5 S 28 33 15 18 1022.7 1022.7 0.2
27/07:00pm 22.6 20.0 18.6 78 2.5 S 30 39 16 21 1022.4 1022.4 0.2
27/06:30pm 23.0 20.2 18.1 74 3.1 S 30 39 16 21 1022.4 1022.4 0.2
27/06:00pm 23.4 21.1 18.5 74 3.1 S 28 35 15 19 1022.2 1022.2 0.2
27/05:30pm 23.7 21.6 18.1 71 3.5 S 26 33 14 18 1022.3 1022.3 0.2
27/05:00pm 23.9 21.1 17.2 66 4.1 S 28 35 15 19 1022.5 1022.5 0.2
27/04:30pm 24.3 21.7 17.8 67 4.1 S 28 39 15 21 1022.4 1022.4 0.2
27/04:00pm 24.3 21.2 17.5 66 4.2 S 30 35 16 19 1022.5 1022.5 0.2
27/03:30pm 24.6 22.5 18.1 67 4.1 S 26 35 14 19 1022.6 1022.6 0.2
27/03:00pm 24.7 22.0 16.7 61 4.9 S 26 33 14 18 1023.0 1023.0 0.2
27/02:30pm 24.3 21.0 16.0 60 5.0 SSE 28 35 15 19 1023.3 1023.3 0.2
27/02:00pm 25.6 22.2 15.9 55 5.9 SSE 28 33 15 18 1023.5 1023.5 0.2
27/01:30pm 25.3 22.2 15.6 55 5.9 SSE 26 33 14 18 1023.7 1023.7 0.2
27/01:00pm 25.4 22.8 16.0 56 5.7 SE 24 33 13 18 1023.7 1023.7 0.2
27/12:30pm 25.4 22.8 16.0 56 5.7 SE 24 32 13 17 1023.9 1023.9 0.2
27/12:00pm 24.2 21.5 16.5 62 4.7 SE 26 32 14 17 1024.1 1024.1 0.2
27/11:30am 25.1 22.6 17.1 61 5.0 SE 26 32 14 17 1024.3 1024.3 0.2
27/11:00am 24.1 21.4 16.6 63 4.6 SE 26 32 14 17 1024.6 1024.6 0.2
27/10:30am 24.0 21.4 16.8 64 4.4 SE 26 35 14 19 1024.5 1024.5 0.0
27/10:00am 24.1 21.8 16.6 63 4.6 SE 24 30 13 16 1024.5 1024.5 0.0
27/09:30am 22.9 20.6 15.7 64 4.3 SE 22 28 12 15 1024.5 1024.5 0.0
27/09:00am 23.1 20.2 16.2 65 4.2 SE 26 32 14 17 1024.1 1024.1 12.8
27/08:30am 22.4 21.0 17.1 72 3.3 SE 20 26 11 14 1023.9 1023.9 12.8
27/08:00am 22.1 20.1 16.4 70 3.4 SE 22 28 12 15 1023.5 1023.5 12.8
27/07:30am 22.0 20.0 16.5 71 3.3 SE 22 28 12 15 1023.2 1023.2 12.8
27/07:00am 22.0 20.9 17.4 75 2.8 ESE 19 26 10 14 1022.9 1022.9 12.8
27/06:30am 21.3 19.8 16.7 75 2.8 ESE 20 28 11 15 1022.6 1022.6 12.8
27/06:00am 21.3 19.2 17.1 77 2.6 ESE 24 32 13 17 1022.3 1022.3 12.8
27/05:30am 21.3 19.5 16.9 76 2.7 ESE 22 30 12 16 1022.2 1022.2 12.8
27/05:00am 21.1 18.1 16.9 77 2.5 ESE 28 33 15 18 1021.8 1021.8 12.8
27/04:30am 21.5 18.5 16.9 75 2.8 ESE 28 35 15 19 1021.7 1021.7 12.8
27/04:00am 21.3 18.7 16.9 76 2.7 ESE 26 35 14 19 1021.8 1021.8 12.8
27/03:30am 21.1 18.7 17.3 79 2.3 ESE 26 35 14 19 1021.9 1021.9 12.8
27/03:00am 21.2 18.4 17.4 79 2.3 ESE 28 37 15 20 1021.9 1021.9 12.8
27/02:30am 21.0 18.8 18.8 87 1.4 ESE 28 35 15 19 1022.1 1022.1 12.8
27/02:11am 19.3 19.3 19.0 98 0.2 S 17 32 9 17 1022.2 1022.2 12.8
27/02:00am 19.2 16.8 19.0 99 0.1 SSW 30 39 16 21 1022.0 1022.0 12.8
27/01:56am 19.0 15.9 18.8 99 0.1 SSW 33 41 18 22 1022.0 1022.0 12.8
27/01:48am 19.3 15.6 19.1 99 0.1 SW 37 44 20 24 1022.1 1022.1 12.8
27/01:44am 19.3 16.5 19.1 99 0.1 SSW 32 44 17 24 1021.9 1021.9 12.6
27/01:36am 19.2 17.0 18.7 97 0.3 SSW 28 35 15 19 1022.1 1022.1 8.8
27/01:30am 19.2 17.8 18.9 98 0.2 SSW 24 35 13 19 1022.3 1022.3 7.4
27/01:22am 19.1 17.3 18.8 98 0.2 SSW 26 35 14 19 1022.4 1022.4 7.2
27/01:14am 18.8 16.5 18.5 98 0.2 SSW 28 32 15 17 1022.3 1022.3 6.8
27/01:00am 18.9 16.6 18.4 97 0.3 SSW 28 33 15 18 1022.5 1022.5 6.6
27/12:48am 18.7 15.9 18.2 97 0.3 SSW 30 35 16 19 1022.5 1022.5 6.6
27/12:38am 19.1 16.8 18.4 96 0.4 SSW 28 39 15 21 1022.4 1022.4 5.6
27/12:30am 19.0 17.0 18.3 96 0.4 SSW 26 30 14 16 1022.6 1022.6 5.6
27/12:00am 18.5 16.3 17.9 96 0.4 SW 26 30 14 16 1022.6 1022.6 5.6
 
Date/Time
EDT
Temp
°C
App
Temp
°C
Dew
Point
°C
Rel
Hum
%
Delta-T
°C
Wind Press
QNH
hPa
Press
MSL
hPa
Rain since
9am
mm
Dir  Spd
km/h
Gust
km/h
Spd
kts
Gust
kts
26/11:48pm 18.7 18.4 18.2 97 0.3 SSW 17 30 9 16 1022.8 1022.8 5.6
26/11:41pm 18.9 19.5 18.6 98 0.2 S 13 17 7 9 1023.0 1023.0 5.4
26/11:30pm 18.8 17.9 18.1 96 0.4 SSW 20 30 11 16 1023.4 1023.4 3.8
26/11:21pm 19.1 17.1 18.3 95 0.5 SSW 26 35 14 19 1023.1 1023.1 1.2
26/11:09pm 19.3 16.5 18.3 94 0.6 SSW 30 39 16 21 1023.0 1023.0 0.8
26/11:00pm 19.5 16.4 18.3 93 0.7 SSW 32 39 17 21 1022.9 1022.9 0.6
26/10:51pm 19.6 16.2 17.7 89 1.2 SSW 32 37 17 20 1022.8 1022.8 0.2
26/10:46pm 20.2 16.9 18.0 87 1.4 SSW 32 43 17 23 1022.9 1022.9 0.2
26/10:36pm 20.2 16.6 17.2 83 1.8 SSW 32 50 17 27 1023.0 1023.0 0.2
26/10:30pm 20.5 16.8 17.5 83 1.8 SSW 33 43 18 23 1023.0 1023.0 0.2
26/10:00pm 21.0 17.5 17.8 82 2.0 S 33 41 18 22 1023.0 1023.0 0.2
26/09:30pm 21.3 17.4 16.9 76 2.7 S 33 39 18 21 1022.8 1022.8 0.2
26/09:00pm 20.5 17.0 17.5 83 1.8 SSE 32 41 17 22 1022.6 1022.6 0.2
26/08:30pm 22.1 18.2 16.4 70 3.5 S 32 37 17 20 1022.2 1022.2 0.2
26/08:00pm 22.1 17.9 15.7 67 3.8 S 32 39 17 21 1022.0 1022.0 0.2
26/07:30pm 22.1 17.3 15.5 66 3.9 S 35 43 19 23 1021.8 1021.8 0.2
26/07:00pm 22.3 17.8 15.4 65 4.1 S 33 39 18 21 1021.7 1021.7 0.2
26/06:30pm 22.3 18.3 16.1 68 3.7 S 32 41 17 22 1021.5 1021.5 0.2
26/06:00pm 22.2 17.9 15.5 66 4.0 S 32 41 17 22 1021.4 1021.4 0.2
26/05:30pm 22.4 18.1 15.3 64 4.2 S 32 41 17 22 1021.5 1021.5 0.2
26/05:00pm 22.6 18.2 15.2 63 4.4 S 32 37 17 20 1021.3 1021.3 0.2
26/04:30pm 22.8 18.0 14.6 60 4.8 S 33 43 18 23 1021.3 1021.3 0.2
26/04:00pm 23.1 18.4 14.9 60 4.9 S 33 41 18 22 1021.2 1021.2 0.2
26/03:30pm 23.1 18.6 16.4 66 4.1 S 35 44 19 24 1021.3 1021.3 0.2
26/03:00pm 23.1 18.7 16.6 67 4.0 S 35 43 19 23 1021.7 1021.7 0.2
26/02:30pm 22.7 18.7 16.3 67 3.9 S 32 39 17 21 1021.9 1021.9 0.2
26/02:00pm 22.7 18.9 16.7 69 3.7 S 32 37 17 20 1022.1 1022.1 0.2
26/01:30pm 23.0 19.8 17.2 70 3.6 S 30 37 16 20 1022.4 1022.4 0.2
26/01:12pm 23.0 19.7 16.1 65 4.2 S 28 48 15 26 1022.5 1022.5 0.2
26/01:00pm 22.7 19.1 15.3 63 4.4 S 28 35 15 19 1022.7 1022.7 0.2
26/12:30pm 22.7 18.6 16.0 66 4.0 S 32 43 17 23 1022.9 1022.9 0.2
26/12:00pm 22.2 18.5 16.0 68 3.7 S 30 48 16 26 1022.9 1022.9 0.2
26/11:30am 22.4 19.0 16.7 70 3.5 S 30 35 16 19 1022.8 1022.8 0.0
26/11:00am 22.0 18.1 15.4 66 3.9 S 30 35 16 19 1022.8 1022.8 0.0
26/10:30am 21.9 18.5 15.7 68 3.7 S 28 35 15 19 1022.9 1022.9 0.0
26/10:00am 22.3 19.0 14.9 63 4.4 SSE 26 35 14 19 1022.6 1022.6 0.0
26/09:30am 21.8 18.8 14.9 65 4.1 SSE 24 32 13 17 1022.2 1022.2 0.0
26/09:00am 21.8 19.4 15.4 67 3.8 SSE 22 30 12 16 1022.0 1022.0 28.2
26/08:30am 21.3 17.9 14.7 66 3.9 SSE 26 32 14 17 1021.5 1021.5 28.2
26/08:00am 21.3 18.1 15.2 68 3.6 SSE 26 33 14 18 1021.2 1021.2 28.2
26/07:30am 20.8 17.3 15.4 71 3.2 SSE 28 33 15 18 1021.0 1021.0 28.2
26/07:00am 20.4 17.4 15.8 75 2.7 SSE 26 35 14 19 1021.0 1021.0 28.2
26/06:30am 20.5 17.8 15.5 73 3.0 SSE 24 30 13 16 1020.7 1020.7 28.2
26/06:00am 20.6 17.7 16.0 75 2.7 SSE 26 35 14 19 1020.4 1020.4 28.2
26/05:30am 20.4 18.0 17.4 83 1.8 SE 26 32 14 17 1020.0 1020.0 28.2
26/05:00am 19.4 18.3 17.2 87 1.3 SSE 19 26 10 14 1020.1 1020.1 28.0
26/04:30am 20.1 17.8 16.7 81 2.1 SSE 24 32 13 17 1019.7 1019.7 27.0
26/04:00am 20.6 16.6 16.8 79 2.3 SE 33 41 18 22 1019.5 1019.5 26.6

Latest Capital City Observations: Canberra | Sydney | Melbourne | Brisbane | Adelaide | Perth | Hobart | Darwin

Other Formats:

Comma delimited format used in spreadsheet applications
http://www.bom.gov.au/fwo/IDN60901/IDN60901.94767.axf

JavaScript Object Notation format (JSON) in row-major order
http://www.bom.gov.au/fwo/IDN60901/IDN60901.94767.json